Виджеты


Виджет Фактической Погоды в аэропортах

Название города
Авиационная погода в Сочи
Время Температура (tC) Точка росы (tC) Направление ветра Скорость ветра (узлы) Условия полета
2020-09-27T10:30:00Z 28.0 16.0 170 10 VFR
Copy and paste this code to your website.

Виджет фактической погоды METAR

Название города
Погода METAR
Авиационная погода в Сочи URSS 271030Z 17005MPS 9999 NSC 28/16 Q1012 R02/010070 R06/010070 NOSIG RMK R06/16004G07MPS QFE758
Copy and paste this code to your website.